Time,TemperatureF,DewpointF,PressureIn,WindDirection,WindDirectionDegrees,WindSpeedMPH,WindSpeedGustMPH,Humidity,HourlyPrecipIn,Conditions,Clouds,dailyrainin,SoftwareType,DateUTC
2014-01-17 00:00:00,28.9,19.0,30.02,East,79,2.0,2.0,66,0.00,,---,0.00,VWS V14.00,2014-01-17 05:00:00,
2014-01-17 00:01:00,28.9,19.0,30.02,East,80,1.0,2.0,66,0.00,,---,0.00,VWS V14.00,2014-01-17 05:01:00,
2014-01-17 00:06:00,29.0,19.8,30.02,SSW,199,0.0,3.0,68,0.00,,---,0.00,VWS V14.00,2014-01-17 05:06:00,
2014-01-17 00:11:00,28.8,20.3,30.01,SSW,199,0.0,3.0,70,0.00,,---,0.00,VWS V14.00,2014-01-17 05:11:00,
2014-01-17 00:16:00,28.6,19.4,30.02,East,89,0.0,6.0,68,0.00,,---,0.00,VWS V14.00,2014-01-17 05:16:00,
2014-01-17 00:21:00,28.8,19.9,30.01,SW,235,0.0,7.0,69,0.00,,---,0.00,VWS V14.00,2014-01-17 05:21:00,
2014-01-17 00:26:00,29.1,20.2,30.01,North,9,1.0,7.0,69,0.00,,---,0.00,VWS V14.00,2014-01-17 05:26:00,
2014-01-17 00:31:00,29.8,19.5,30.01,WSW,253,0.0,9.0,65,0.00,,---,0.00,VWS V14.00,2014-01-17 05:31:00,
2014-01-17 00:36:00,30.0,20.0,30.01,East,98,1.0,9.0,66,0.00,,---,0.00,VWS V14.00,2014-01-17 05:36:00,
2014-01-17 00:41:00,30.3,20.7,30.00,West,262,2.0,13.0,67,0.00,,---,0.00,VWS V14.00,2014-01-17 05:41:00,
2014-01-17 00:46:00,30.3,20.7,30.00,SSW,203,0.0,13.0,67,0.00,,---,0.00,VWS V14.00,2014-01-17 05:46:00,
2014-01-17 00:51:00,30.3,20.0,30.00,East,100,3.0,13.0,65,0.00,,---,0.00,VWS V14.00,2014-01-17 05:51:00,
2014-01-17 00:56:00,30.1,20.8,30.00,East,95,0.0,13.0,68,0.00,,---,0.00,VWS V14.00,2014-01-17 05:56:00,
2014-01-17 01:00:00,29.8,20.9,30.00,East,97,1.0,13.0,69,0.00,,---,0.00,VWS V14.00,2014-01-17 06:00:00,
2014-01-17 01:01:00,29.6,20.7,29.99,East,97,1.0,3.0,69,0.00,,---,0.00,VWS V14.00,2014-01-17 06:01:00,
2014-01-17 01:06:00,29.4,20.2,29.99,East,97,0.0,3.0,68,0.00,,---,0.00,VWS V14.00,2014-01-17 06:06:00,
2014-01-17 01:12:00,29.4,20.5,29.99,ESE,119,1.0,4.0,69,0.00,,---,0.00,VWS V14.00,2014-01-17 06:12:00,
2014-01-17 01:17:00,29.0,20.1,29.99,ESE,117,1.0,4.0,69,0.00,,---,0.00,VWS V14.00,2014-01-17 06:17:00,
2014-01-17 01:22:00,28.8,20.3,29.98,NW,305,0.0,5.0,70,0.00,,---,0.00,VWS V14.00,2014-01-17 06:22:00,
2014-01-17 01:27:00,28.5,20.3,29.98,WNW,295,2.0,5.0,71,0.00,,---,0.00,VWS V14.00,2014-01-17 06:27:00,
2014-01-17 01:31:00,28.2,20.4,29.98,WNW,296,2.0,5.0,72,0.00,,---,0.00,VWS V14.00,2014-01-17 06:31:00,
2014-01-17 01:37:00,27.9,19.7,29.98,WNW,299,1.0,5.0,71,0.00,,---,0.00,VWS V14.00,2014-01-17 06:37:00,
2014-01-17 01:42:00,27.7,19.9,29.98,WNW,299,2.0,5.0,72,0.00,,---,0.00,VWS V14.00,2014-01-17 06:42:00,
2014-01-17 01:45:00,27.6,20.1,29.98,WNW,298,0.0,5.0,73,0.00,,---,0.00,VWS V14.00,2014-01-17 06:45:00,
2014-01-17 01:50:00,27.3,20.1,29.98,WNW,294,0.0,5.0,74,0.00,,---,0.00,VWS V14.00,2014-01-17 06:50:00,
2014-01-17 01:55:00,27.1,19.6,29.98,WNW,295,2.0,5.0,73,0.00,,---,0.00,VWS V14.00,2014-01-17 06:55:00,
2014-01-17 02:00:00,27.2,19.4,29.98,WNW,294,2.0,3.0,72,0.00,,---,0.00,VWS V14.00,2014-01-17 07:00:00,
2014-01-17 02:05:00,27.4,19.9,29.98,WNW,294,0.0,4.0,73,0.00,,---,0.00,VWS V14.00,2014-01-17 07:05:00,
2014-01-17 02:10:00,27.2,20.0,29.98,WNW,294,2.0,4.0,74,0.00,,---,0.00,VWS V14.00,2014-01-17 07:10:00,
2014-01-17 02:15:00,27.1,20.2,29.99,WNW,292,1.0,4.0,75,0.00,,---,0.00,VWS V14.00,2014-01-17 07:15:00,
2014-01-17 02:20:00,27.0,20.1,29.99,WNW,294,1.0,4.0,75,0.00,,---,0.00,VWS V14.00,2014-01-17 07:20:00,
2014-01-17 02:25:00,27.0,20.5,29.98,East,82,2.0,7.0,76,0.00,,---,0.00,VWS V14.00,2014-01-17 07:25:00,
2014-01-17 02:30:00,27.4,20.5,29.98,South,191,0.0,7.0,75,0.00,,---,0.00,VWS V14.00,2014-01-17 07:30:00,
2014-01-17 02:35:00,27.5,20.9,29.98,South,191,0.0,7.0,76,0.00,,---,0.00,VWS V14.00,2014-01-17 07:35:00,
2014-01-17 02:40:00,27.6,19.8,29.98,South,191,0.0,7.0,72,0.00,,---,0.00,VWS V14.00,2014-01-17 07:40:00,
2014-01-17 02:45:00,27.8,21.2,29.97,South,191,0.0,7.0,76,0.00,,---,0.00,VWS V14.00,2014-01-17 07:45:00,
2014-01-17 02:50:00,27.8,20.6,29.98,South,191,0.0,7.0,74,0.00,,---,0.00,VWS V14.00,2014-01-17 07:50:00,
2014-01-17 02:55:00,28.0,21.1,29.98,South,191,0.0,7.0,75,0.00,,---,0.00,VWS V14.00,2014-01-17 07:55:00,
2014-01-17 03:00:00,28.1,21.5,29.98,South,191,0.0,0.0,76,0.00,,---,0.00,VWS V14.00,2014-01-17 08:00:00,
2014-01-17 03:05:00,28.3,22.0,29.99,South,191,0.0,1.0,77,0.00,,---,0.00,VWS V14.00,2014-01-17 08:05:00,
2014-01-17 03:10:00,28.4,21.5,29.98,SSW,192,0.0,2.0,75,0.00,,---,0.00,VWS V14.00,2014-01-17 08:10:00,
2014-01-17 03:15:00,28.4,21.5,29.98,South,191,2.0,3.0,75,0.00,,---,0.00,VWS V14.00,2014-01-17 08:15:00,
2014-01-17 03:20:00,28.5,21.9,29.98,South,191,0.0,3.0,76,0.00,,---,0.00,VWS V14.00,2014-01-17 08:20:00,
2014-01-17 03:25:00,28.5,22.2,29.98,South,191,0.0,3.0,77,0.00,,---,0.00,VWS V14.00,2014-01-17 08:25:00,
2014-01-17 03:30:00,28.6,21.4,29.98,South,191,1.0,3.0,74,0.00,,---,0.00,VWS V14.00,2014-01-17 08:30:00,
2014-01-17 03:35:00,28.8,21.9,29.97,South,179,0.0,4.0,75,0.00,,---,0.00,VWS V14.00,2014-01-17 08:35:00,
2014-01-17 03:40:00,28.8,20.9,29.97,South,180,0.0,4.0,72,0.00,,---,0.00,VWS V14.00,2014-01-17 08:40:00,
2014-01-17 03:45:00,28.8,21.2,29.97,South,180,0.0,4.0,73,0.00,,---,0.00,VWS V14.00,2014-01-17 08:45:00,
2014-01-17 03:50:00,28.8,21.9,29.97,South,180,0.0,4.0,75,0.00,,---,0.00,VWS V14.00,2014-01-17 08:50:00,
2014-01-17 03:55:00,28.8,21.9,29.96,South,179,0.0,4.0,75,0.00,,---,0.00,VWS V14.00,2014-01-17 08:55:00,
2014-01-17 04:00:00,28.8,22.5,29.97,South,180,0.0,0.0,77,0.00,,---,0.00,VWS V14.00,2014-01-17 09:00:00,
2014-01-17 04:05:00,28.9,22.3,29.96,South,180,0.0,2.0,76,0.00,,---,0.00,VWS V14.00,2014-01-17 09:05:00,
2014-01-17 04:10:00,29.0,21.8,29.96,South,179,0.0,2.0,74,0.00,,---,0.00,VWS V14.00,2014-01-17 09:10:00,
2014-01-17 04:15:00,29.1,22.2,29.96,South,180,0.0,3.0,75,0.00,,---,0.00,VWS V14.00,2014-01-17 09:15:00,
2014-01-17 04:20:00,29.2,22.6,29.96,South,180,2.0,3.0,76,0.00,,---,0.00,VWS V14.00,2014-01-17 09:20:00,
2014-01-17 04:25:00,29.3,22.7,29.95,South,180,0.0,3.0,76,0.00,,---,0.00,VWS V14.00,2014-01-17 09:25:00,
2014-01-17 04:30:00,29.4,23.4,29.96,South,180,0.0,3.0,78,0.00,,---,0.00,VWS V14.00,2014-01-17 09:30:00,
2014-01-17 04:35:00,29.7,22.4,29.96,NE,43,0.0,6.0,74,0.00,,---,0.00,VWS V14.00,2014-01-17 09:35:00,
2014-01-17 04:40:00,29.8,23.2,29.95,NE,43,0.0,6.0,76,0.00,,---,0.00,VWS V14.00,2014-01-17 09:40:00,
2014-01-17 04:45:00,29.9,23.9,29.96,NE,43,0.0,6.0,78,0.00,,---,0.00,VWS V14.00,2014-01-17 09:45:00,
2014-01-17 04:50:00,29.8,23.5,29.95,NE,43,0.0,6.0,77,0.00,,---,0.00,VWS V14.00,2014-01-17 09:50:00,
2014-01-17 04:55:00,29.7,23.7,29.95,NE,43,0.0,6.0,78,0.00,,---,0.00,VWS V14.00,2014-01-17 09:55:00,
2014-01-17 05:00:00,29.6,23.6,29.95,NE,42,1.0,2.0,78,0.00,,---,0.00,VWS V14.00,2014-01-17 10:00:00,
2014-01-17 05:05:00,29.5,23.2,29.95,NE,43,0.0,2.0,77,0.00,,---,0.00,VWS V14.00,2014-01-17 10:05:00,
2014-01-17 05:10:00,29.5,22.9,29.95,NE,43,0.0,2.0,76,0.00,,---,0.00,VWS V14.00,2014-01-17 10:10:00,
2014-01-17 05:15:00,29.5,23.8,29.95,NE,43,1.0,3.0,79,0.00,,---,0.00,VWS V14.00,2014-01-17 10:15:00,
2014-01-17 05:20:00,29.3,23.3,29.95,NE,43,2.0,4.0,78,0.00,,---,0.00,VWS V14.00,2014-01-17 10:20:00,
2014-01-17 05:25:00,29.0,22.7,29.95,NE,43,1.0,4.0,77,0.00,,---,0.00,VWS V14.00,2014-01-17 10:25:00,
2014-01-17 05:30:00,28.7,22.4,29.95,NE,43,2.0,4.0,77,0.00,,---,0.00,VWS V14.00,2014-01-17 10:30:00,
2014-01-17 05:35:00,28.3,22.3,29.95,NE,43,1.0,4.0,78,0.00,,---,0.00,VWS V14.00,2014-01-17 10:35:00,
2014-01-17 05:40:00,28.1,22.4,29.94,NE,43,2.0,4.0,79,0.00,,---,0.00,VWS V14.00,2014-01-17 10:40:00,
2014-01-17 05:45:00,28.0,22.6,29.95,NE,43,0.0,4.0,80,0.00,,---,0.00,VWS V14.00,2014-01-17 10:45:00,
2014-01-17 05:50:00,28.0,22.3,29.94,NE,43,0.0,4.0,79,0.00,,---,0.00,VWS V14.00,2014-01-17 10:50:00,
2014-01-17 05:55:00,28.2,22.2,29.94,NE,43,0.0,4.0,78,0.00,,---,0.00,VWS V14.00,2014-01-17 10:55:00,
2014-01-17 06:00:00,28.4,22.7,29.94,NE,42,1.0,2.0,79,0.00,,---,0.00,VWS V14.00,2014-01-17 11:00:00,
2014-01-17 06:05:00,28.4,22.7,29.95,NE,43,0.0,2.0,79,0.00,,---,0.00,VWS V14.00,2014-01-17 11:05:00,
2014-01-17 06:10:00,28.1,22.4,29.95,NE,43,0.0,2.0,79,0.00,,---,0.00,VWS V14.00,2014-01-17 11:10:00,
2014-01-17 06:15:00,27.7,21.8,29.95,NE,43,1.0,2.0,78,0.00,,---,0.00,VWS V14.00,2014-01-17 11:15:00,
2014-01-17 06:20:00,27.5,21.9,29.95,NE,43,2.0,3.0,79,0.00,,---,0.00,VWS V14.00,2014-01-17 11:20:00,
2014-01-17 06:25:00,27.3,21.7,29.95,NE,43,2.0,3.0,79,0.00,,---,0.00,VWS V14.00,2014-01-17 11:25:00,
2014-01-17 06:30:00,27.2,21.9,29.96,NE,43,0.0,3.0,80,0.00,,---,0.00,VWS V14.00,2014-01-17 11:30:00,
2014-01-17 06:35:00,27.4,22.4,29.96,NE,43,1.0,3.0,81,0.00,,---,0.00,VWS V14.00,2014-01-17 11:35:00,
2014-01-17 06:40:00,27.7,22.6,29.96,NE,43,2.0,3.0,81,0.00,,---,0.00,VWS V14.00,2014-01-17 11:40:00,
2014-01-17 06:45:00,27.9,22.8,29.96,NE,43,0.0,3.0,81,0.00,,---,0.00,VWS V14.00,2014-01-17 11:45:00,
2014-01-17 06:50:00,27.8,22.4,29.96,NE,43,0.0,3.0,80,0.00,,---,0.00,VWS V14.00,2014-01-17 11:50:00,
2014-01-17 06:55:00,27.6,22.0,29.96,NE,43,1.0,3.0,79,0.00,,---,0.00,VWS V14.00,2014-01-17 11:55:00,
2014-01-17 07:00:00,27.4,21.8,29.96,NE,43,0.0,0.0,79,0.00,,---,0.00,VWS V14.00,2014-01-17 12:00:00,
2014-01-17 07:05:00,27.1,21.2,29.96,NE,43,1.0,4.0,78,0.00,,---,0.00,VWS V14.00,2014-01-17 12:05:00,
2014-01-17 07:10:00,26.9,21.3,29.96,NE,43,2.0,4.0,79,0.00,,---,0.00,VWS V14.00,2014-01-17 12:10:00,
2014-01-17 07:15:00,26.6,21.0,29.96,NE,42,1.0,4.0,79,0.00,,---,0.00,VWS V14.00,2014-01-17 12:15:00,
2014-01-17 07:20:00,26.4,21.1,29.96,NE,43,0.0,4.0,80,0.00,,---,0.00,VWS V14.00,2014-01-17 12:20:00,
2014-01-17 07:25:00,26.3,21.0,29.96,NE,43,3.0,4.0,80,0.00,,---,0.00,VWS V14.00,2014-01-17 12:25:00,
2014-01-17 07:30:00,26.2,20.9,29.96,NE,43,2.0,4.0,80,0.00,,---,0.00,VWS V14.00,2014-01-17 12:30:00,
2014-01-17 07:35:00,25.9,20.6,29.97,NE,43,1.0,4.0,80,0.00,,---,0.00,VWS V14.00,2014-01-17 12:35:00,
2014-01-17 07:40:00,25.8,20.8,29.97,NE,43,2.0,4.0,81,0.00,,---,0.00,VWS V14.00,2014-01-17 12:40:00,
2014-01-17 07:45:00,25.6,20.6,29.96,NE,43,2.0,4.0,81,0.00,,---,0.00,VWS V14.00,2014-01-17 12:45:00,
2014-01-17 07:50:00,25.8,20.8,29.96,NE,43,0.0,4.0,81,0.00,,---,0.00,VWS V14.00,2014-01-17 12:50:00,
2014-01-17 07:55:00,25.9,20.9,29.97,NE,43,0.0,5.0,81,0.00,,---,0.00,VWS V14.00,2014-01-17 12:55:00,
2014-01-17 08:00:00,25.9,20.9,29.97,NE,43,1.0,1.0,81,0.00,,---,0.00,VWS V14.00,2014-01-17 13:00:00,
2014-01-17 08:05:00,26.0,21.3,29.97,NE,43,1.0,3.0,82,0.00,,---,0.00,VWS V14.00,2014-01-17 13:05:00,
2014-01-17 08:10:00,26.2,21.2,29.97,NE,43,1.0,3.0,81,0.00,,---,0.00,VWS V14.00,2014-01-17 13:10:00,
2014-01-17 08:15:00,26.2,21.2,29.97,NE,43,2.0,3.0,81,0.00,,---,0.00,VWS V14.00,2014-01-17 13:15:00,
2014-01-17 08:20:00,26.2,21.2,29.97,NE,43,0.0,4.0,81,0.00,,---,0.00,VWS V14.00,2014-01-17 13:20:00,
2014-01-17 08:25:00,26.3,21.6,29.97,NE,43,1.0,4.0,82,0.00,,---,0.00,VWS V14.00,2014-01-17 13:25:00,
2014-01-17 08:30:00,26.2,21.2,29.97,NE,43,1.0,4.0,81,0.00,,---,0.00,VWS V14.00,2014-01-17 13:30:00,
2014-01-17 08:35:00,26.2,21.5,29.96,NE,42,1.0,4.0,82,0.00,,---,0.00,VWS V14.00,2014-01-17 13:35:00,
2014-01-17 08:40:00,26.1,21.1,29.96,NE,43,1.0,4.0,81,0.00,,---,0.00,VWS V14.00,2014-01-17 13:40:00,
2014-01-17 08:45:00,26.2,21.2,29.96,NE,43,1.0,4.0,81,0.00,,---,0.00,VWS V14.00,2014-01-17 13:45:00,
2014-01-17 08:50:00,26.2,21.5,29.96,NE,43,0.0,4.0,82,0.00,,---,0.00,VWS V14.00,2014-01-17 13:50:00,
2014-01-17 08:55:00,26.2,21.2,29.96,NE,43,2.0,4.0,81,0.00,,---,0.00,VWS V14.00,2014-01-17 13:55:00,
2014-01-17 09:00:00,26.4,21.1,29.96,NE,43,1.0,3.0,80,0.00,,---,0.00,VWS V14.00,2014-01-17 14:00:00,
2014-01-17 09:05:00,26.7,21.4,29.96,NE,43,0.0,3.0,80,0.00,,---,0.00,VWS V14.00,2014-01-17 14:05:00,
2014-01-17 09:10:00,26.7,21.4,29.96,NE,43,1.0,4.0,80,0.00,,---,0.00,VWS V14.00,2014-01-17 14:10:00,
2014-01-17 09:15:00,26.7,21.4,29.96,NE,43,2.0,4.0,80,0.00,,---,0.00,VWS V14.00,2014-01-17 14:15:00,
2014-01-17 09:20:00,26.9,21.6,29.96,NE,40,1.0,5.0,80,0.00,,---,0.00,VWS V14.00,2014-01-17 14:20:00,
2014-01-17 09:25:00,27.2,21.6,29.97,West,261,1.0,6.0,79,0.00,,---,0.00,VWS V14.00,2014-01-17 14:25:00,
2014-01-17 09:30:00,27.7,22.0,29.97,West,267,2.0,6.0,79,0.00,,---,0.00,VWS V14.00,2014-01-17 14:30:00,
2014-01-17 09:35:00,27.9,21.9,29.97,West,259,0.0,6.0,78,0.00,,---,0.00,VWS V14.00,2014-01-17 14:35:00,
2014-01-17 09:40:00,28.1,21.8,29.97,SSE,155,2.0,6.0,77,0.00,,---,0.00,VWS V14.00,2014-01-17 14:40:00,
2014-01-17 09:45:00,28.7,22.4,29.97,East,84,3.0,6.0,77,0.00,,---,0.00,VWS V14.00,2014-01-17 14:45:00,
2014-01-17 09:50:00,29.1,22.2,29.97,ESE,102,6.0,6.0,75,0.00,,---,0.00,VWS V14.00,2014-01-17 14:50:00,
2014-01-17 09:55:00,29.9,22.0,29.96,West,271,2.0,7.0,72,0.00,,---,0.00,VWS V14.00,2014-01-17 14:55:00,
2014-01-17 10:00:00,30.3,22.0,29.97,NNW,345,0.0,1.0,71,0.00,,---,0.00,VWS V14.00,2014-01-17 15:00:00,
2014-01-17 10:05:00,30.6,21.6,29.96,NNW,348,3.0,6.0,69,0.00,,---,0.00,VWS V14.00,2014-01-17 15:05:00,
2014-01-17 10:10:00,30.8,22.2,29.96,NNW,348,2.0,6.0,70,0.00,,---,0.00,VWS V14.00,2014-01-17 15:10:00,
2014-01-17 10:15:00,31.0,22.0,29.96,NNW,346,1.0,12.0,69,0.00,,---,0.00,VWS V14.00,2014-01-17 15:15:00,
2014-01-17 10:20:00,31.3,22.7,29.97,NNW,346,4.0,12.0,70,0.00,,---,0.00,VWS V14.00,2014-01-17 15:20:00,
2014-01-17 10:25:00,31.4,22.8,29.96,NNW,342,3.0,12.0,70,0.00,,---,0.00,VWS V14.00,2014-01-17 15:25:00,
2014-01-17 10:30:00,31.4,22.8,29.96,NNW,331,0.0,12.0,70,0.00,,---,0.00,VWS V14.00,2014-01-17 15:30:00,
2014-01-17 10:35:00,31.5,22.2,29.96,SSW,194,2.0,12.0,68,0.00,,---,0.00,VWS V14.00,2014-01-17 15:35:00,
2014-01-17 10:40:00,32.3,20.4,29.96,East,94,1.0,12.0,61,0.00,,---,0.00,VWS V14.00,2014-01-17 15:40:00,
2014-01-17 10:45:00,33.2,20.8,29.95,ENE,62,0.0,12.0,60,0.00,,---,0.00,VWS V14.00,2014-01-17 15:45:00,
2014-01-17 10:50:00,33.3,21.3,29.95,NNW,345,2.0,14.0,61,0.00,,---,0.00,VWS V14.00,2014-01-17 15:50:00,
2014-01-17 10:55:00,33.5,20.7,29.95,North,351,9.0,14.0,59,0.00,,---,0.00,VWS V14.00,2014-01-17 15:55:00,
2014-01-17 11:00:00,33.8,21.0,29.95,NNE,15,7.0,7.0,59,0.00,,---,0.00,VWS V14.00,2014-01-17 16:00:00,
2014-01-17 11:05:00,33.9,21.5,29.95,SW,215,0.0,10.0,60,0.00,,---,0.00,VWS V14.00,2014-01-17 16:05:00,
2014-01-17 11:10:00,33.9,20.7,29.95,SE,126,5.0,14.0,58,0.00,,---,0.00,VWS V14.00,2014-01-17 16:10:00,
2014-01-17 11:15:00,34.1,20.9,29.95,SE,134,10.0,17.0,58,0.00,,---,0.00,VWS V14.00,2014-01-17 16:15:00,
2014-01-17 11:20:00,34.2,19.7,29.95,ENE,74,3.0,17.0,55,0.00,,---,0.00,VWS V14.00,2014-01-17 16:20:00,
2014-01-17 11:25:00,34.4,19.5,29.94,East,84,7.0,17.0,54,0.00,,---,0.00,VWS V14.00,2014-01-17 16:25:00,
2014-01-17 11:30:00,34.4,20.3,29.94,North,355,6.0,17.0,56,0.00,,---,0.00,VWS V14.00,2014-01-17 16:30:00,
2014-01-17 11:35:00,34.4,19.9,29.93,North,355,3.0,17.0,55,0.00,,---,0.00,VWS V14.00,2014-01-17 16:35:00,
2014-01-17 11:40:00,34.4,21.2,29.93,ENE,78,8.0,18.0,58,0.00,,---,0.00,VWS V14.00,2014-01-17 16:40:00,
2014-01-17 11:45:00,34.4,19.0,29.93,NNE,22,1.0,18.0,53,0.00,,---,0.00,VWS V14.00,2014-01-17 16:45:00,
2014-01-17 11:50:00,35.0,20.0,29.93,ENE,63,1.0,18.0,54,0.00,,---,0.00,VWS V14.00,2014-01-17 16:50:00,
2014-01-17 11:55:00,35.3,21.6,29.92,ESE,123,4.0,18.0,57,0.00,,---,0.00,VWS V14.00,2014-01-17 16:55:00,
2014-01-17 12:00:00,35.3,20.8,29.91,North,350,0.0,3.0,55,0.00,,---,0.00,VWS V14.00,2014-01-17 17:00:00,
2014-01-17 12:05:00,35.5,20.5,29.91,NNE,19,13.0,13.0,54,0.00,,---,0.00,VWS V14.00,2014-01-17 17:05:00,
2014-01-17 12:10:00,35.9,20.9,29.90,WNW,287,2.0,18.0,54,0.00,,---,0.00,VWS V14.00,2014-01-17 17:10:00,
2014-01-17 12:15:00,36.2,19.4,29.89,NNE,19,5.0,19.0,50,0.00,,---,0.00,VWS V14.00,2014-01-17 17:15:00,
2014-01-17 12:20:00,36.3,20.4,29.89,NNW,344,9.0,19.0,52,0.00,,---,0.00,VWS V14.00,2014-01-17 17:20:00,
2014-01-17 12:25:00,36.4,19.5,29.88,WSW,246,2.0,19.0,50,0.00,,---,0.00,VWS V14.00,2014-01-17 17:25:00,
2014-01-17 12:30:00,36.5,21.5,29.88,WNW,291,1.0,19.0,54,0.00,,---,0.00,VWS V14.00,2014-01-17 17:30:00,
2014-01-17 12:35:00,36.5,20.1,29.88,North,355,9.0,19.0,51,0.00,,---,0.00,VWS V14.00,2014-01-17 17:35:00,
2014-01-17 12:40:00,36.5,20.1,29.87,NNW,334,17.0,19.0,51,0.00,,---,0.00,VWS V14.00,2014-01-17 17:40:00,
2014-01-17 12:45:00,36.6,19.3,29.86,NNE,24,14.0,19.0,49,0.00,,---,0.00,VWS V14.00,2014-01-17 17:45:00,
2014-01-17 12:50:00,37.0,20.1,29.86,North,360,11.0,19.0,50,0.00,,---,0.00,VWS V14.00,2014-01-17 17:50:00,
2014-01-17 12:55:00,37.1,19.2,29.86,North,360,6.0,19.0,48,0.00,,---,0.00,VWS V14.00,2014-01-17 17:55:00,
2014-01-17 13:00:00,37.3,19.9,29.85,SE,142,1.0,8.0,49,0.00,,---,0.00,VWS V14.00,2014-01-17 18:00:00,
2014-01-17 13:05:00,37.6,20.7,29.85,NNW,346,4.0,13.0,50,0.00,,---,0.00,VWS V14.00,2014-01-17 18:05:00,
2014-01-17 13:10:00,37.5,20.1,29.85,NNW,340,10.0,15.0,49,0.00,,---,0.00,VWS V14.00,2014-01-17 18:10:00,
2014-01-17 13:15:00,37.5,19.6,29.84,North,349,2.0,20.0,48,0.00,,---,0.00,VWS V14.00,2014-01-17 18:15:00,
2014-01-17 13:20:00,37.5,20.1,29.84,NNW,342,5.0,20.0,49,0.00,,---,0.00,VWS V14.00,2014-01-17 18:20:00,
2014-01-17 13:25:00,37.5,20.6,29.83,NW,317,3.0,20.0,50,0.00,,---,0.00,VWS V14.00,2014-01-17 18:25:00,
2014-01-17 13:30:00,37.7,21.2,29.84,NNW,348,8.0,20.0,51,0.00,,---,0.00,VWS V14.00,2014-01-17 18:30:00,
2014-01-17 13:35:00,37.8,19.4,29.84,NNW,336,3.0,20.0,47,0.00,,---,0.00,VWS V14.00,2014-01-17 18:35:00,
2014-01-17 13:40:00,38.0,20.5,29.84,NNW,340,10.0,20.0,49,0.00,,---,0.00,VWS V14.00,2014-01-17 18:40:00,
2014-01-17 13:45:00,37.8,19.4,29.84,NNE,30,11.0,20.0,47,0.00,,---,0.00,VWS V14.00,2014-01-17 18:45:00,
2014-01-17 13:50:00,37.6,17.7,29.84,NNW,342,2.0,20.0,44,0.00,,---,0.00,VWS V14.00,2014-01-17 18:50:00,
2014-01-17 13:55:00,37.5,18.1,29.83,NNW,348,9.0,20.0,45,0.00,,---,0.00,VWS V14.00,2014-01-17 18:55:00,
2014-01-17 14:00:00,37.4,18.0,29.83,NNW,329,5.0,18.0,45,0.00,,---,0.00,VWS V14.00,2014-01-17 19:00:00,
2014-01-17 14:05:00,37.2,18.8,29.83,NNE,28,3.0,18.0,47,0.00,,---,0.00,VWS V14.00,2014-01-17 19:05:00,
2014-01-17 14:10:00,37.0,17.1,29.84,NNW,341,1.0,22.0,44,0.00,,---,0.00,VWS V14.00,2014-01-17 19:10:00,
2014-01-17 14:15:00,37.1,16.7,29.82,NNW,342,4.0,22.0,43,0.00,,---,0.00,VWS V14.00,2014-01-17 19:15:00,
2014-01-17 14:20:00,37.1,19.7,29.83,NNW,348,9.0,22.0,49,0.00,,---,0.00,VWS V14.00,2014-01-17 19:20:00,
2014-01-17 14:25:00,37.1,21.6,29.83,NNW,329,1.0,22.0,53,0.00,,---,0.00,VWS V14.00,2014-01-17 19:25:00,
2014-01-17 14:30:00,37.1,19.2,29.82,NW,306,5.0,22.0,48,0.00,,---,0.00,VWS V14.00,2014-01-17 19:30:00,
2014-01-17 14:35:00,37.2,21.7,29.83,NNW,336,8.0,22.0,53,0.00,,---,0.00,VWS V14.00,2014-01-17 19:35:00,
2014-01-17 14:40:00,37.1,17.7,29.83,NE,44,3.0,22.0,45,0.00,,---,0.00,VWS V14.00,2014-01-17 19:40:00,
2014-01-17 14:45:00,37.1,17.7,29.83,NE,53,2.0,22.0,45,0.00,,---,0.00,VWS V14.00,2014-01-17 19:45:00,
2014-01-17 14:50:00,37.1,18.2,29.83,NW,325,8.0,22.0,46,0.00,,---,0.00,VWS V14.00,2014-01-17 19:50:00,
2014-01-17 14:55:00,37.2,17.8,29.83,North,350,4.0,22.0,45,0.00,,---,0.00,VWS V14.00,2014-01-17 19:55:00,
2014-01-17 15:00:00,37.0,17.6,29.83,NNW,332,3.0,9.0,45,0.00,,---,0.00,VWS V14.00,2014-01-17 20:00:00,
2014-01-17 15:05:00,36.8,17.0,29.83,South,171,0.0,13.0,44,0.00,,---,0.00,VWS V14.00,2014-01-17 20:05:00,
2014-01-17 15:10:00,36.6,16.2,29.84,North,355,6.0,25.0,43,0.00,,---,0.00,VWS V14.00,2014-01-17 20:10:00,
2014-01-17 15:15:00,36.6,15.7,29.84,East,86,2.0,25.0,42,0.00,,---,0.00,VWS V14.00,2014-01-17 20:15:00,
2014-01-17 15:20:00,36.5,15.6,29.83,North,9,7.0,25.0,42,0.00,,---,0.00,VWS V14.00,2014-01-17 20:20:00,
2014-01-17 15:25:00,36.5,14.5,29.83,North,350,1.0,25.0,40,0.00,,---,0.00,VWS V14.00,2014-01-17 20:25:00,
2014-01-17 15:30:00,36.3,16.5,29.84,ENE,59,2.0,25.0,44,0.00,,---,0.00,VWS V14.00,2014-01-17 20:30:00,
2014-01-17 15:35:00,36.2,16.9,29.84,SSE,161,2.0,25.0,45,0.00,,---,0.00,VWS V14.00,2014-01-17 20:35:00,
2014-01-17 15:40:00,36.0,15.1,29.84,North,9,13.0,25.0,42,0.00,,---,0.00,VWS V14.00,2014-01-17 20:40:00,
2014-01-17 15:45:00,36.0,16.2,29.84,ENE,72,1.0,25.0,44,0.00,,---,0.00,VWS V14.00,2014-01-17 20:45:00,
2014-01-17 15:50:00,36.0,15.1,29.84,NNE,28,3.0,25.0,42,0.00,,---,0.00,VWS V14.00,2014-01-17 20:50:00,
2014-01-17 15:55:00,36.0,18.2,29.85,NNW,344,1.0,25.0,48,0.00,,---,0.00,VWS V14.00,2014-01-17 20:55:00,
2014-01-17 16:00:00,35.7,17.5,29.85,North,11,5.0,5.0,47,0.00,,---,0.00,VWS V14.00,2014-01-17 21:00:00,
2014-01-17 16:05:00,35.5,19.6,29.85,NW,306,1.0,10.0,52,0.00,,---,0.00,VWS V14.00,2014-01-17 21:05:00,
2014-01-17 16:10:00,35.2,19.4,29.85,North,349,4.0,10.0,52,0.00,,---,0.00,VWS V14.00,2014-01-17 21:10:00,
2014-01-17 16:15:00,35.0,20.5,29.86,NNW,338,1.0,10.0,55,0.00,,---,0.00,VWS V14.00,2014-01-17 21:15:00,
2014-01-17 16:20:00,34.6,19.7,29.86,NNE,17,2.0,12.0,54,0.00,,---,0.00,VWS V14.00,2014-01-17 21:20:00,
2014-01-17 16:25:00,34.4,19.5,29.86,NNE,26,6.0,12.0,54,0.00,,---,0.00,VWS V14.00,2014-01-17 21:25:00,
2014-01-17 16:30:00,34.4,19.5,29.86,North,355,0.0,19.0,54,0.00,,---,0.00,VWS V14.00,2014-01-17 21:30:00,
2014-01-17 16:35:00,34.1,20.1,29.86,NW,305,3.0,19.0,56,0.00,,---,0.00,VWS V14.00,2014-01-17 21:35:00,
2014-01-17 16:40:00,33.9,20.7,29.86,North,5,2.0,19.0,58,0.00,,---,0.00,VWS V14.00,2014-01-17 21:40:00,
2014-01-17 16:45:00,33.6,19.2,29.87,NNE,32,2.0,19.0,55,0.00,,---,0.00,VWS V14.00,2014-01-17 21:45:00,
2014-01-17 16:50:00,33.6,19.2,29.86,WNW,298,4.0,19.0,55,0.00,,---,0.00,VWS V14.00,2014-01-17 21:50:00,
2014-01-17 16:55:00,33.4,19.4,29.87,NNW,346,3.0,19.0,56,0.00,,---,0.00,VWS V14.00,2014-01-17 21:55:00,
2014-01-17 17:00:00,33.3,19.7,29.87,NNW,330,1.0,3.0,57,0.00,,---,0.00,VWS V14.00,2014-01-17 22:00:00,
2014-01-17 17:05:00,33.2,19.2,29.87,NNE,16,2.0,5.0,56,0.00,,---,0.00,VWS V14.00,2014-01-17 22:05:00,
2014-01-17 17:10:00,32.8,19.7,29.88,NW,325,0.0,7.0,58,0.00,,---,0.00,VWS V14.00,2014-01-17 22:10:00,
2014-01-17 17:15:00,32.4,19.7,29.88,NNW,346,3.0,7.0,59,0.00,,---,0.00,VWS V14.00,2014-01-17 22:15:00,
2014-01-17 17:20:00,32.2,18.7,29.89,NNE,18,2.0,9.0,57,0.00,,---,0.00,VWS V14.00,2014-01-17 22:20:00,
2014-01-17 17:25:00,32.1,19.0,29.88,North,5,1.0,10.0,58,0.00,,---,0.00,VWS V14.00,2014-01-17 22:25:00,
2014-01-17 17:30:00,32.1,17.3,29.88,NNE,26,4.0,10.0,54,0.00,,---,0.00,VWS V14.00,2014-01-17 22:30:00,
2014-01-17 17:35:00,32.0,20.1,29.88,NNW,343,0.0,11.0,61,0.00,,---,0.00,VWS V14.00,2014-01-17 22:35:00,
2014-01-17 17:40:00,31.8,17.9,29.89,SE,130,1.0,24.0,56,0.00,,---,0.00,VWS V14.00,2014-01-17 22:40:00,
2014-01-17 17:45:00,31.7,17.4,29.90,ESE,121,3.0,24.0,55,0.00,,---,0.00,VWS V14.00,2014-01-17 22:45:00,
2014-01-17 17:50:00,31.6,19.3,29.89,ESE,107,0.0,24.0,60,0.00,,---,0.00,VWS V14.00,2014-01-17 22:50:00,
2014-01-17 17:55:00,31.3,17.4,29.89,NW,318,2.0,24.0,56,0.00,,---,0.00,VWS V14.00,2014-01-17 22:55:00,
2014-01-17 18:00:00,31.1,18.5,29.89,ESE,105,2.0,2.0,59,0.00,,---,0.00,VWS V14.00,2014-01-17 23:00:00,
2014-01-17 18:05:00,31.2,16.9,29.89,NNW,338,2.0,10.0,55,0.00,,---,0.00,VWS V14.00,2014-01-17 23:05:00,
2014-01-17 18:10:00,31.1,18.1,29.90,North,355,0.0,10.0,58,0.00,,---,0.00,VWS V14.00,2014-01-17 23:10:00,
2014-01-17 18:15:00,30.9,17.5,29.90,NW,325,4.0,12.0,57,0.00,,---,0.00,VWS V14.00,2014-01-17 23:15:00,
2014-01-17 18:20:00,30.6,19.9,29.90,NW,325,0.0,12.0,64,0.00,,---,0.00,VWS V14.00,2014-01-17 23:20:00,
2014-01-17 18:25:00,30.2,19.1,29.90,North,355,1.0,12.0,63,0.00,,---,0.00,VWS V14.00,2014-01-17 23:25:00,
2014-01-17 18:30:00,30.0,20.0,29.91,North,355,0.0,12.0,66,0.00,,---,0.00,VWS V14.00,2014-01-17 23:30:00,
2014-01-17 18:35:00,29.8,18.4,29.91,NNW,344,2.0,12.0,62,0.00,,---,0.00,VWS V14.00,2014-01-17 23:35:00,
2014-01-17 18:40:00,29.8,18.8,29.91,NNW,344,2.0,12.0,63,0.00,,---,0.00,VWS V14.00,2014-01-17 23:40:00,
2014-01-17 18:45:00,29.6,19.3,29.91,North,355,3.0,12.0,65,0.00,,---,0.00,VWS V14.00,2014-01-17 23:45:00,
2014-01-17 18:50:00,29.6,18.2,29.92,NNW,344,0.0,12.0,62,0.00,,---,0.00,VWS V14.00,2014-01-17 23:50:00,
2014-01-17 18:55:00,29.4,18.7,29.92,NNW,344,2.0,12.0,64,0.00,,---,0.00,VWS V14.00,2014-01-17 23:55:00,
2014-01-17 19:00:00,29.1,19.9,29.92,NW,323,8.0,10.0,68,0.00,,---,0.00,VWS V14.00,2014-01-18 00:00:00,
2014-01-17 19:05:00,28.8,18.9,29.92,NW,323,0.0,10.0,66,0.00,,---,0.00,VWS V14.00,2014-01-18 00:05:00,
2014-01-17 19:10:00,28.5,19.3,29.92,ESE,122,1.0,10.0,68,0.00,,---,0.00,VWS V14.00,2014-01-18 00:10:00,
2014-01-17 19:15:00,28.4,18.5,29.92,NNW,333,1.0,10.0,66,0.00,,---,0.00,VWS V14.00,2014-01-18 00:15:00,
2014-01-17 19:20:00,28.1,18.6,29.93,SSW,208,0.0,10.0,67,0.00,,---,0.00,VWS V14.00,2014-01-18 00:20:00,
2014-01-17 19:25:00,28.0,18.1,29.93,SE,132,3.0,10.0,66,0.00,,---,0.00,VWS V14.00,2014-01-18 00:25:00,
2014-01-17 19:30:00,28.0,18.5,29.93,NNW,345,0.0,10.0,67,0.00,,---,0.00,VWS V14.00,2014-01-18 00:30:00,
2014-01-17 19:35:00,27.8,18.3,29.94,North,355,2.0,10.0,67,0.00,,---,0.00,VWS V14.00,2014-01-18 00:35:00,
2014-01-17 19:40:00,27.8,18.6,29.94,North,355,2.0,10.0,68,0.00,,---,0.00,VWS V14.00,2014-01-18 00:40:00,
2014-01-17 19:45:00,27.7,18.5,29.94,North,360,5.0,11.0,68,0.00,,---,0.00,VWS V14.00,2014-01-18 00:45:00,
2014-01-17 19:50:00,27.6,18.8,29.94,SE,131,4.0,11.0,69,0.00,,---,0.00,VWS V14.00,2014-01-18 00:50:00,
2014-01-17 19:55:00,27.4,18.2,29.94,North,351,1.0,11.0,68,0.00,,---,0.00,VWS V14.00,2014-01-18 00:55:00,
2014-01-17 20:00:00,27.2,18.7,29.94,WNW,298,3.0,16.0,70,0.00,,---,0.00,VWS V14.00,2014-01-18 01:00:00,
2014-01-17 20:05:00,27.0,18.2,29.94,North,9,3.0,16.0,69,0.00,,---,0.00,VWS V14.00,2014-01-18 01:05:00,
2014-01-17 20:10:00,26.8,17.7,29.94,NE,53,3.0,16.0,68,0.00,,---,0.00,VWS V14.00,2014-01-18 01:10:00,
2014-01-17 20:15:00,26.7,17.9,29.95,NNW,328,2.0,16.0,69,0.00,,---,0.00,VWS V14.00,2014-01-18 01:15:00,
2014-01-17 20:20:00,26.5,18.0,29.95,NNW,343,1.0,16.0,70,0.00,,---,0.00,VWS V14.00,2014-01-18 01:20:00,
2014-01-17 20:25:00,26.3,18.2,29.95,NW,318,0.0,16.0,71,0.00,,---,0.00,VWS V14.00,2014-01-18 01:25:00,
2014-01-17 20:30:00,26.2,18.7,29.96,West,260,4.0,16.0,73,0.00,,---,0.00,VWS V14.00,2014-01-18 01:30:00,
2014-01-17 20:35:00,26.0,17.9,29.95,NNW,342,1.0,16.0,71,0.00,,---,0.00,VWS V14.00,2014-01-18 01:35:00,
2014-01-17 20:40:00,25.7,17.3,29.95,ENE,58,2.0,16.0,70,0.00,,---,0.00,VWS V14.00,2014-01-18 01:40:00,
2014-01-17 20:45:00,25.5,17.1,29.96,ENE,59,2.0,16.0,70,0.00,,---,0.00,VWS V14.00,2014-01-18 01:45:00,
2014-01-17 20:50:00,25.4,16.7,29.95,WNW,286,0.0,16.0,69,0.00,,---,0.00,VWS V14.00,2014-01-18 01:50:00,
2014-01-17 20:55:00,25.2,16.5,29.96,East,85,0.0,16.0,69,0.00,,---,0.00,VWS V14.00,2014-01-18 01:55:00,
2014-01-17 21:00:00,25.1,16.7,29.96,NNE,32,0.0,1.0,70,0.00,,---,0.00,VWS V14.00,2014-01-18 02:00:00,
2014-01-17 21:05:00,25.0,16.6,29.95,NNW,332,3.0,9.0,70,0.00,,---,0.00,VWS V14.00,2014-01-18 02:05:00,
2014-01-17 21:10:00,25.0,16.9,29.95,North,355,4.0,9.0,71,0.00,,---,0.00,VWS V14.00,2014-01-18 02:10:00,
2014-01-17 21:15:00,24.9,16.2,29.96,NNW,329,2.0,9.0,69,0.00,,---,0.00,VWS V14.00,2014-01-18 02:15:00,
2014-01-17 21:20:00,24.8,16.1,29.96,North,360,3.0,9.0,69,0.00,,---,0.00,VWS V14.00,2014-01-18 02:20:00,
2014-01-17 21:25:00,24.7,15.3,29.96,NNW,331,0.0,11.0,67,0.00,,---,0.00,VWS V14.00,2014-01-18 02:25:00,
2014-01-17 21:30:00,24.6,15.9,29.96,WNW,297,0.0,11.0,69,0.00,,---,0.00,VWS V14.00,2014-01-18 02:30:00,
2014-01-17 21:35:00,24.4,15.7,29.96,North,11,2.0,11.0,69,0.00,,---,0.00,VWS V14.00,2014-01-18 02:35:00,
2014-01-17 21:40:00,24.3,15.6,29.96,North,355,3.0,11.0,69,0.00,,---,0.00,VWS V14.00,2014-01-18 02:40:00,
2014-01-17 21:45:00,24.1,15.8,29.96,NNW,344,2.0,11.0,70,0.00,,---,0.00,VWS V14.00,2014-01-18 02:45:00,
2014-01-17 21:50:00,24.0,15.6,29.96,NNW,346,4.0,11.0,70,0.00,,---,0.00,VWS V14.00,2014-01-18 02:50:00,
2014-01-17 21:55:00,23.9,14.9,29.96,NNW,338,3.0,12.0,68,0.00,,---,0.00,VWS V14.00,2014-01-18 02:55:00,
2014-01-17 22:00:00,23.7,14.4,29.97,NNW,346,5.0,5.0,67,0.00,,---,0.00,VWS V14.00,2014-01-18 03:00:00,
2014-01-17 22:05:00,23.6,14.3,29.97,NNW,337,6.0,6.0,67,0.00,,---,0.00,VWS V14.00,2014-01-18 03:05:00,
2014-01-17 22:10:00,23.5,14.2,29.97,NNW,348,3.0,6.0,67,0.00,,---,0.00,VWS V14.00,2014-01-18 03:10:00,
2014-01-17 22:15:00,23.4,14.4,29.96,NNW,341,3.0,10.0,68,0.00,,---,0.00,VWS V14.00,2014-01-18 03:15:00,
2014-01-17 22:20:00,23.3,14.0,29.96,NNW,341,0.0,10.0,67,0.00,,---,0.00,VWS V14.00,2014-01-18 03:20:00,
2014-01-17 22:25:00,23.2,13.5,29.96,West,273,3.0,10.0,66,0.00,,---,0.00,VWS V14.00,2014-01-18 03:25:00,
2014-01-17 22:30:00,23.0,13.4,29.96,NNW,348,4.0,10.0,66,0.00,,---,0.00,VWS V14.00,2014-01-18 03:30:00,
2014-01-17 22:35:00,22.7,12.7,29.96,North,355,3.0,12.0,65,0.00,,---,0.00,VWS V14.00,2014-01-18 03:35:00,
2014-01-17 22:40:00,22.5,12.9,29.96,North,5,9.0,12.0,66,0.00,,---,0.00,VWS V14.00,2014-01-18 03:40:00,
2014-01-17 22:45:00,22.3,12.7,29.96,East,86,8.0,12.0,66,0.00,,---,0.00,VWS V14.00,2014-01-18 03:45:00,
2014-01-17 22:50:00,22.1,12.8,29.96,NNW,348,6.0,12.0,67,0.00,,---,0.00,VWS V14.00,2014-01-18 03:50:00,
2014-01-17 22:55:00,21.9,12.6,29.96,NNW,348,5.0,12.0,67,0.00,,---,0.00,VWS V14.00,2014-01-18 03:55:00,
2014-01-17 23:00:00,21.7,12.1,29.96,North,5,2.0,3.0,66,0.00,,---,0.00,VWS V14.00,2014-01-18 04:00:00,
2014-01-17 23:05:00,21.6,12.4,29.95,North,360,2.0,6.0,67,0.00,,---,0.00,VWS V14.00,2014-01-18 04:05:00,
2014-01-17 23:10:00,21.5,11.9,29.95,NW,308,1.0,10.0,66,0.00,,---,0.00,VWS V14.00,2014-01-18 04:10:00,
2014-01-17 23:15:00,21.3,12.1,29.95,NNW,344,4.0,10.0,67,0.00,,---,0.00,VWS V14.00,2014-01-18 04:15:00,
2014-01-17 23:20:00,21.1,11.5,29.95,NNW,348,3.0,14.0,66,0.00,,---,0.00,VWS V14.00,2014-01-18 04:20:00,
2014-01-17 23:25:00,20.9,11.0,29.95,NNE,28,2.0,14.0,65,0.00,,---,0.00,VWS V14.00,2014-01-18 04:25:00,
2014-01-17 23:41:00,20.4,10.9,29.95,North,9,0.0,0.0,66,0.00,,---,0.00,VWS V14.00,2014-01-18 04:41:00,
2014-01-17 23:46:00,20.3,11.1,29.94,North,350,0.0,8.0,67,0.00,,---,0.00,VWS V14.00,2014-01-18 04:46:00,
2014-01-17 23:51:00,20.1,10.6,29.94,ENE,77,1.0,11.0,66,0.00,,---,0.00,VWS V14.00,2014-01-18 04:51:00,
2014-01-17 23:56:00,20.0,10.5,29.94,ESE,117,2.0,11.0,66,0.00,,---,0.00,VWS V14.00,2014-01-18 04:56:00,